sensor_id;sensor_type;location;lat;lon;timestamp;P1;durP1;ratioP1;P2;durP2;ratioP2
79015;SDS011;72726;44.842;37.556;2024-03-22T00:17:33;16.88;;;6.25;;
79015;SDS011;72726;44.842;37.556;2024-03-22T00:18:34;19.25;;;7.63;;
79015;SDS011;72726;44.842;37.556;2024-03-22T00:19:36;19.02;;;7.28;;
79015;SDS011;72726;44.842;37.556;2024-03-22T00:20:37;15.98;;;6.97;;
79015;SDS011;72726;44.842;37.556;2024-03-22T00:21:38;19.92;;;8.18;;
79015;SDS011;72726;44.842;37.556;2024-03-22T00:22:40;19.75;;;7.40;;
79015;SDS011;72726;44.842;37.556;2024-03-22T00:23:41;19.00;;;7.28;;
79015;SDS011;72726;44.842;37.556;2024-03-22T00:24:42;19.63;;;7.85;;
79015;SDS011;72726;44.842;37.556;2024-03-22T00:25:43;20.80;;;7.45;;
79015;SDS011;72726;44.842;37.556;2024-03-22T00:26:45;20.10;;;7.80;;
79015;SDS011;72726;44.842;37.556;2024-03-22T00:27:50;21.52;;;8.43;;
79015;SDS011;72726;44.842;37.556;2024-03-22T00:28:51;19.83;;;7.40;;
79015;SDS011;72726;44.842;37.556;2024-03-22T00:29:57;19.17;;;8.27;;
79015;SDS011;72726;44.842;37.556;2024-03-22T00:30:58;18.77;;;7.47;;
79015;SDS011;72726;44.842;37.556;2024-03-22T00:32:00;17.63;;;7.40;;
79015;SDS011;72726;44.842;37.556;2024-03-22T00:33:03;20.13;;;7.88;;
79015;SDS011;72726;44.842;37.556;2024-03-22T00:34:05;18.23;;;6.93;;
79015;SDS011;72726;44.842;37.556;2024-03-22T00:35:06;19.75;;;8.15;;
79015;SDS011;72726;44.842;37.556;2024-03-22T00:36:08;20.38;;;8.18;;
79015;SDS011;72726;44.842;37.556;2024-03-22T00:37:09;21.10;;;9.30;;
79015;SDS011;72726;44.842;37.556;2024-03-22T00:38:10;25.42;;;9.05;;
79015;SDS011;72726;44.842;37.556;2024-03-22T00:39:13;18.52;;;7.47;;
79015;SDS011;72726;44.842;37.556;2024-03-22T00:40:14;19.65;;;8.30;;
79015;SDS011;72726;44.842;37.556;2024-03-22T00:41:15;19.65;;;7.90;;
79015;SDS011;72726;44.842;37.556;2024-03-22T00:42:16;17.65;;;7.53;;
79015;SDS011;72726;44.842;37.556;2024-03-22T00:43:18;18.25;;;7.30;;
79015;SDS011;72726;44.842;37.556;2024-03-22T00:44:21;17.73;;;7.47;;
79015;SDS011;72726;44.842;37.556;2024-03-22T00:45:22;19.17;;;7.20;;
79015;SDS011;72726;44.842;37.556;2024-03-22T00:46:24;19.02;;;7.65;;
79015;SDS011;72726;44.842;37.556;2024-03-22T00:47:25;19.55;;;8.23;;
79015;SDS011;72726;44.842;37.556;2024-03-22T00:48:26;17.02;;;7.82;;
79015;SDS011;72726;44.842;37.556;2024-03-22T00:49:27;17.55;;;7.97;;
79015;SDS011;72726;44.842;37.556;2024-03-22T00:50:29;18.20;;;7.85;;
79015;SDS011;72726;44.842;37.556;2024-03-22T00:51:30;17.05;;;6.97;;
79015;SDS011;72726;44.842;37.556;2024-03-22T00:52:31;18.45;;;8.57;;
79015;SDS011;72726;44.842;37.556;2024-03-22T00:53:33;20.85;;;7.75;;
79015;SDS011;72726;44.842;37.556;2024-03-22T00:54:34;18.02;;;7.95;;
79015;SDS011;72726;44.842;37.556;2024-03-22T00:55:35;18.10;;;7.72;;
79015;SDS011;72726;44.842;37.556;2024-03-22T00:56:36;19.45;;;8.57;;
79015;SDS011;72726;44.842;37.556;2024-03-22T00:57:38;18.15;;;8.30;;
79015;SDS011;72726;44.842;37.556;2024-03-22T00:58:39;17.23;;;7.57;;
79015;SDS011;72726;44.842;37.556;2024-03-22T00:59:40;17.75;;;6.57;;
79015;SDS011;72726;44.842;37.556;2024-03-22T01:00:41;18.65;;;7.07;;
79015;SDS011;72726;44.842;37.556;2024-03-22T01:01:43;20.00;;;7.10;;
79015;SDS011;72726;44.842;37.556;2024-03-22T01:02:44;17.42;;;7.30;;
79015;SDS011;72726;44.842;37.556;2024-03-22T01:03:46;20.00;;;7.75;;
79015;SDS011;72726;44.842;37.556;2024-03-22T01:04:47;17.15;;;7.03;;
79015;SDS011;72726;44.842;37.556;2024-03-22T01:05:49;20.77;;;8.15;;
79015;SDS011;72726;44.842;37.556;2024-03-22T01:06:50;18.63;;;6.95;;
79015;SDS011;72726;44.842;37.556;2024-03-22T01:07:51;17.15;;;7.15;;
79015;SDS011;72726;44.842;37.556;2024-03-22T01:08:52;19.02;;;7.50;;
79015;SDS011;72726;44.842;37.556;2024-03-22T01:09:54;15.20;;;6.93;;
79015;SDS011;72726;44.842;37.556;2024-03-22T01:10:55;17.50;;;7.97;;
79015;SDS011;72726;44.842;37.556;2024-03-22T01:11:56;16.50;;;7.45;;
79015;SDS011;72726;44.842;37.556;2024-03-22T01:12:58;16.85;;;7.88;;
79015;SDS011;72726;44.842;37.556;2024-03-22T01:13:59;18.92;;;7.78;;
79015;SDS011;72726;44.842;37.556;2024-03-22T01:15:00;17.80;;;7.30;;
79015;SDS011;72726;44.842;37.556;2024-03-22T01:16:01;15.27;;;6.75;;
79015;SDS011;72726;44.842;37.556;2024-03-22T01:17:03;20.05;;;7.68;;
79015;SDS011;72726;44.842;37.556;2024-03-22T01:18:04;19.35;;;7.32;;
79015;SDS011;72726;44.842;37.556;2024-03-22T01:19:06;16.98;;;7.80;;
79015;SDS011;72726;44.842;37.556;2024-03-22T01:20:07;21.20;;;8.10;;
79015;SDS011;72726;44.842;37.556;2024-03-22T01:21:09;21.80;;;8.25;;
79015;SDS011;72726;44.842;37.556;2024-03-22T01:22:10;17.25;;;7.30;;
79015;SDS011;72726;44.842;37.556;2024-03-22T01:23:11;20.00;;;7.63;;
79015;SDS011;72726;44.842;37.556;2024-03-22T01:24:12;18.08;;;7.93;;
79015;SDS011;72726;44.842;37.556;2024-03-22T01:25:14;17.40;;;7.65;;
79015;SDS011;72726;44.842;37.556;2024-03-22T01:26:15;17.00;;;7.82;;
79015;SDS011;72726;44.842;37.556;2024-03-22T01:27:16;18.67;;;7.97;;
79015;SDS011;72726;44.842;37.556;2024-03-22T01:28:18;15.75;;;7.45;;
79015;SDS011;72726;44.842;37.556;2024-03-22T01:29:19;18.20;;;6.97;;
79015;SDS011;72726;44.842;37.556;2024-03-22T01:30:20;17.83;;;7.28;;
79015;SDS011;72726;44.842;37.556;2024-03-22T01:31:21;19.15;;;7.97;;
79015;SDS011;72726;44.842;37.556;2024-03-22T01:32:23;17.65;;;7.00;;
79015;SDS011;72726;44.842;37.556;2024-03-22T01:33:24;19.17;;;6.80;;
79015;SDS011;72726;44.842;37.556;2024-03-22T01:34:25;15.60;;;6.40;;
79015;SDS011;72726;44.842;37.556;2024-03-22T01:35:27;16.17;;;6.70;;
79015;SDS011;72726;44.842;37.556;2024-03-22T01:36:28;16.75;;;7.35;;
79015;SDS011;72726;44.842;37.556;2024-03-22T01:37:29;15.98;;;6.85;;
79015;SDS011;72726;44.842;37.556;2024-03-22T01:38:31;16.52;;;7.50;;
79015;SDS011;72726;44.842;37.556;2024-03-22T01:39:32;16.80;;;7.70;;
79015;SDS011;72726;44.842;37.556;2024-03-22T01:40:33;14.75;;;6.90;;
79015;SDS011;72726;44.842;37.556;2024-03-22T01:41:35;15.60;;;6.82;;
79015;SDS011;72726;44.842;37.556;2024-03-22T01:42:36;15.07;;;6.43;;
79015;SDS011;72726;44.842;37.556;2024-03-22T01:43:37;18.40;;;6.82;;
79015;SDS011;72726;44.842;37.556;2024-03-22T01:44:38;18.55;;;7.47;;
79015;SDS011;72726;44.842;37.556;2024-03-22T01:45:40;20.38;;;6.85;;
79015;SDS011;72726;44.842;37.556;2024-03-22T01:46:41;18.85;;;7.03;;
79015;SDS011;72726;44.842;37.556;2024-03-22T01:47:43;16.90;;;6.55;;
79015;SDS011;72726;44.842;37.556;2024-03-22T01:48:44;18.60;;;6.93;;
79015;SDS011;72726;44.842;37.556;2024-03-22T01:49:46;17.27;;;7.55;;
79015;SDS011;72726;44.842;37.556;2024-03-22T01:50:48;19.25;;;7.00;;
79015;SDS011;72726;44.842;37.556;2024-03-22T01:51:49;19.63;;;7.05;;
79015;SDS011;72726;44.842;37.556;2024-03-22T01:52:51;17.75;;;7.20;;
79015;SDS011;72726;44.842;37.556;2024-03-22T01:53:53;18.85;;;7.25;;
79015;SDS011;72726;44.842;37.556;2024-03-22T01:54:55;17.17;;;7.38;;
79015;SDS011;72726;44.842;37.556;2024-03-22T01:55:56;17.25;;;7.22;;
79015;SDS011;72726;44.842;37.556;2024-03-22T01:56:58;17.40;;;6.90;;
79015;SDS011;72726;44.842;37.556;2024-03-22T01:57:59;15.63;;;6.93;;
79015;SDS011;72726;44.842;37.556;2024-03-22T01:59:01;16.08;;;6.65;;
79015;SDS011;72726;44.842;37.556;2024-03-22T02:00:03;17.08;;;7.10;;
79015;SDS011;72726;44.842;37.556;2024-03-22T02:01:14;17.25;;;7.22;;
79015;SDS011;72726;44.842;37.556;2024-03-22T02:02:16;16.08;;;6.80;;
79015;SDS011;72726;44.842;37.556;2024-03-22T02:03:17;15.82;;;6.47;;
79015;SDS011;72726;44.842;37.556;2024-03-22T02:04:18;17.08;;;6.55;;
79015;SDS011;72726;44.842;37.556;2024-03-22T02:05:20;16.90;;;6.78;;
79015;SDS011;72726;44.842;37.556;2024-03-22T02:06:22;17.15;;;6.07;;
79015;SDS011;72726;44.842;37.556;2024-03-22T02:07:23;15.82;;;5.95;;
79015;SDS011;72726;44.842;37.556;2024-03-22T02:08:24;16.63;;;6.32;;
79015;SDS011;72726;44.842;37.556;2024-03-22T02:09:26;14.80;;;6.40;;
79015;SDS011;72726;44.842;37.556;2024-03-22T02:10:27;16.25;;;6.53;;
79015;SDS011;72726;44.842;37.556;2024-03-22T02:11:29;14.60;;;6.22;;
79015;SDS011;72726;44.842;37.556;2024-03-22T02:12:31;15.65;;;6.25;;
79015;SDS011;72726;44.842;37.556;2024-03-22T02:13:32;14.38;;;5.50;;
79015;SDS011;72726;44.842;37.556;2024-03-22T02:14:33;14.68;;;5.80;;
79015;SDS011;72726;44.842;37.556;2024-03-22T02:15:34;16.65;;;6.72;;
79015;SDS011;72726;44.842;37.556;2024-03-22T02:16:36;15.40;;;6.30;;
79015;SDS011;72726;44.842;37.556;2024-03-22T02:17:37;14.55;;;6.00;;
79015;SDS011;72726;44.842;37.556;2024-03-22T02:18:38;14.27;;;6.68;;
79015;SDS011;72726;44.842;37.556;2024-03-22T02:19:40;16.10;;;6.22;;
79015;SDS011;72726;44.842;37.556;2024-03-22T02:20:41;15.65;;;6.00;;
79015;SDS011;72726;44.842;37.556;2024-03-22T02:21:42;15.48;;;6.22;;
79015;SDS011;72726;44.842;37.556;2024-03-22T02:22:44;14.75;;;6.03;;
79015;SDS011;72726;44.842;37.556;2024-03-22T02:23:45;14.80;;;6.28;;
79015;SDS011;72726;44.842;37.556;2024-03-22T02:24:46;15.52;;;6.70;;
79015;SDS011;72726;44.842;37.556;2024-03-22T02:25:47;14.35;;;5.55;;
79015;SDS011;72726;44.842;37.556;2024-03-22T02:26:49;13.68;;;5.63;;
79015;SDS011;72726;44.842;37.556;2024-03-22T02:27:50;14.93;;;6.32;;
79015;SDS011;72726;44.842;37.556;2024-03-22T02:28:51;13.93;;;5.80;;
79015;SDS011;72726;44.842;37.556;2024-03-22T02:29:52;15.55;;;5.68;;
79015;SDS011;72726;44.842;37.556;2024-03-22T02:30:54;12.43;;;5.35;;
79015;SDS011;72726;44.842;37.556;2024-03-22T02:31:55;10.90;;;5.28;;
79015;SDS011;72726;44.842;37.556;2024-03-22T02:32:58;14.45;;;5.68;;
79015;SDS011;72726;44.842;37.556;2024-03-22T02:34:00;13.68;;;5.30;;
79015;SDS011;72726;44.842;37.556;2024-03-22T02:35:01;14.45;;;5.43;;
79015;SDS011;72726;44.842;37.556;2024-03-22T02:36:03;15.30;;;5.78;;
79015;SDS011;72726;44.842;37.556;2024-03-22T02:37:04;13.60;;;5.90;;
79015;SDS011;72726;44.842;37.556;2024-03-22T02:38:05;13.50;;;5.95;;
79015;SDS011;72726;44.842;37.556;2024-03-22T02:39:07;13.18;;;5.07;;
79015;SDS011;72726;44.842;37.556;2024-03-22T02:40:08;13.55;;;6.00;;
79015;SDS011;72726;44.842;37.556;2024-03-22T02:41:10;14.20;;;6.03;;
79015;SDS011;72726;44.842;37.556;2024-03-22T02:42:11;14.02;;;5.88;;
79015;SDS011;72726;44.842;37.556;2024-03-22T02:43:12;13.85;;;5.45;;
79015;SDS011;72726;44.842;37.556;2024-03-22T02:44:14;14.18;;;6.10;;
79015;SDS011;72726;44.842;37.556;2024-03-22T02:45:15;16.33;;;6.00;;
79015;SDS011;72726;44.842;37.556;2024-03-22T02:46:16;13.23;;;5.70;;
79015;SDS011;72726;44.842;37.556;2024-03-22T02:47:18;15.20;;;6.00;;
79015;SDS011;72726;44.842;37.556;2024-03-22T02:48:19;11.35;;;4.82;;
79015;SDS011;72726;44.842;37.556;2024-03-22T02:49:20;13.18;;;5.45;;
79015;SDS011;72726;44.842;37.556;2024-03-22T02:50:21;13.57;;;5.18;;
79015;SDS011;72726;44.842;37.556;2024-03-22T02:51:23;12.98;;;5.32;;
79015;SDS011;72726;44.842;37.556;2024-03-22T02:52:24;12.20;;;5.25;;
79015;SDS011;72726;44.842;37.556;2024-03-22T02:53:25;15.75;;;5.75;;
79015;SDS011;72726;44.842;37.556;2024-03-22T02:54:26;15.00;;;4.97;;
79015;SDS011;72726;44.842;37.556;2024-03-22T02:55:28;16.30;;;5.63;;
79015;SDS011;72726;44.842;37.556;2024-03-22T02:56:29;13.70;;;5.72;;
79015;SDS011;72726;44.842;37.556;2024-03-22T02:57:31;18.85;;;5.88;;
79015;SDS011;72726;44.842;37.556;2024-03-22T02:58:32;11.95;;;5.28;;
79015;SDS011;72726;44.842;37.556;2024-03-22T02:59:35;12.77;;;5.75;;
79015;SDS011;72726;44.842;37.556;2024-03-22T03:00:37;14.38;;;6.20;;
79015;SDS011;72726;44.842;37.556;2024-03-22T03:01:41;14.40;;;5.10;;
79015;SDS011;72726;44.842;37.556;2024-03-22T03:02:42;13.27;;;5.78;;
79015;SDS011;72726;44.842;37.556;2024-03-22T03:03:44;16.17;;;6.13;;
79015;SDS011;72726;44.842;37.556;2024-03-22T03:04:45;12.77;;;5.60;;
79015;SDS011;72726;44.842;37.556;2024-03-22T03:05:46;11.73;;;4.97;;
79015;SDS011;72726;44.842;37.556;2024-03-22T03:06:47;13.20;;;5.82;;
79015;SDS011;72726;44.842;37.556;2024-03-22T03:07:49;15.50;;;6.05;;
79015;SDS011;72726;44.842;37.556;2024-03-22T03:08:51;16.83;;;5.35;;
79015;SDS011;72726;44.842;37.556;2024-03-22T03:09:52;11.00;;;4.90;;
79015;SDS011;72726;44.842;37.556;2024-03-22T03:10:54;12.73;;;5.85;;
79015;SDS011;72726;44.842;37.556;2024-03-22T03:11:55;15.15;;;5.18;;
79015;SDS011;72726;44.842;37.556;2024-03-22T03:12:56;13.93;;;5.53;;
79015;SDS011;72726;44.842;37.556;2024-03-22T03:13:57;12.57;;;5.65;;
79015;SDS011;72726;44.842;37.556;2024-03-22T03:14:59;12.63;;;5.22;;
79015;SDS011;72726;44.842;37.556;2024-03-22T03:16:00;13.45;;;5.70;;
79015;SDS011;72726;44.842;37.556;2024-03-22T03:17:02;13.13;;;5.35;;
79015;SDS011;72726;44.842;37.556;2024-03-22T03:18:04;13.68;;;5.30;;
79015;SDS011;72726;44.842;37.556;2024-03-22T03:19:05;13.35;;;5.50;;
79015;SDS011;72726;44.842;37.556;2024-03-22T03:20:07;14.60;;;5.50;;
79015;SDS011;72726;44.842;37.556;2024-03-22T03:21:10;18.40;;;6.13;;
79015;SDS011;72726;44.842;37.556;2024-03-22T03:22:11;13.02;;;5.75;;
79015;SDS011;72726;44.842;37.556;2024-03-22T03:23:13;13.60;;;5.45;;
79015;SDS011;72726;44.842;37.556;2024-03-22T03:24:14;16.30;;;5.88;;
79015;SDS011;72726;44.842;37.556;2024-03-22T03:25:15;13.95;;;5.43;;
79015;SDS011;72726;44.842;37.556;2024-03-22T03:26:16;12.25;;;5.50;;
79015;SDS011;72726;44.842;37.556;2024-03-22T03:27:18;11.18;;;5.03;;
79015;SDS011;72726;44.842;37.556;2024-03-22T03:28:19;14.15;;;5.35;;
79015;SDS011;72726;44.842;37.556;2024-03-22T03:29:21;13.30;;;5.40;;
79015;SDS011;72726;44.842;37.556;2024-03-22T03:30:22;14.35;;;6.50;;
79015;SDS011;72726;44.842;37.556;2024-03-22T03:31:23;13.80;;;5.43;;
79015;SDS011;72726;44.842;37.556;2024-03-22T03:32:25;12.73;;;4.93;;
79015;SDS011;72726;44.842;37.556;2024-03-22T03:33:27;12.23;;;5.32;;
79015;SDS011;72726;44.842;37.556;2024-03-22T03:34:28;13.35;;;6.00;;
79015;SDS011;72726;44.842;37.556;2024-03-22T03:35:29;13.55;;;5.45;;
79015;SDS011;72726;44.842;37.556;2024-03-22T03:36:31;14.88;;;5.55;;
79015;SDS011;72726;44.842;37.556;2024-03-22T03:37:32;14.73;;;5.22;;
79015;SDS011;72726;44.842;37.556;2024-03-22T03:38:34;13.45;;;5.82;;
79015;SDS011;72726;44.842;37.556;2024-03-22T03:39:38;13.13;;;5.55;;
79015;SDS011;72726;44.842;37.556;2024-03-22T03:40:40;15.02;;;5.63;;
79015;SDS011;72726;44.842;37.556;2024-03-22T03:41:41;15.18;;;6.25;;
79015;SDS011;72726;44.842;37.556;2024-03-22T03:42:42;13.73;;;5.57;;
79015;SDS011;72726;44.842;37.556;2024-03-22T03:43:44;12.95;;;5.50;;
79015;SDS011;72726;44.842;37.556;2024-03-22T03:44:45;14.68;;;5.32;;
79015;SDS011;72726;44.842;37.556;2024-03-22T03:45:46;14.35;;;5.88;;
79015;SDS011;72726;44.842;37.556;2024-03-22T03:46:47;13.10;;;5.40;;
79015;SDS011;72726;44.842;37.556;2024-03-22T03:47:49;15.43;;;6.03;;
79015;SDS011;72726;44.842;37.556;2024-03-22T03:48:50;13.60;;;5.60;;
79015;SDS011;72726;44.842;37.556;2024-03-22T03:49:52;17.80;;;5.45;;
79015;SDS011;72726;44.842;37.556;2024-03-22T03:50:54;18.20;;;5.75;;
79015;SDS011;72726;44.842;37.556;2024-03-22T03:51:55;13.85;;;6.13;;
79015;SDS011;72726;44.842;37.556;2024-03-22T03:52:57;14.77;;;5.63;;
79015;SDS011;72726;44.842;37.556;2024-03-22T03:53:58;14.02;;;5.85;;
79015;SDS011;72726;44.842;37.556;2024-03-22T03:54:59;13.90;;;5.57;;
79015;SDS011;72726;44.842;37.556;2024-03-22T03:56:00;13.43;;;5.22;;
79015;SDS011;72726;44.842;37.556;2024-03-22T03:57:02;15.55;;;5.70;;
79015;SDS011;72726;44.842;37.556;2024-03-22T03:58:03;17.35;;;5.93;;
79015;SDS011;72726;44.842;37.556;2024-03-22T03:59:05;12.88;;;5.75;;
79015;SDS011;72726;44.842;37.556;2024-03-22T04:00:06;13.50;;;5.78;;
79015;SDS011;72726;44.842;37.556;2024-03-22T04:01:08;13.52;;;5.47;;
79015;SDS011;72726;44.842;37.556;2024-03-22T04:02:10;16.75;;;6.20;;
79015;SDS011;72726;44.842;37.556;2024-03-22T04:03:11;13.30;;;5.95;;
79015;SDS011;72726;44.842;37.556;2024-03-22T04:04:12;13.50;;;5.22;;
79015;SDS011;72726;44.842;37.556;2024-03-22T04:05:14;13.60;;;5.70;;
79015;SDS011;72726;44.842;37.556;2024-03-22T04:06:15;15.38;;;5.68;;
79015;SDS011;72726;44.842;37.556;2024-03-22T04:07:16;11.48;;;5.45;;
79015;SDS011;72726;44.842;37.556;2024-03-22T04:08:18;15.35;;;5.30;;
79015;SDS011;72726;44.842;37.556;2024-03-22T04:09:19;14.93;;;6.13;;
79015;SDS011;72726;44.842;37.556;2024-03-22T04:10:20;13.25;;;5.05;;
79015;SDS011;72726;44.842;37.556;2024-03-22T04:11:21;13.30;;;5.80;;
79015;SDS011;72726;44.842;37.556;2024-03-22T04:12:22;12.82;;;5.50;;
79015;SDS011;72726;44.842;37.556;2024-03-22T04:13:24;13.25;;;5.40;;
79015;SDS011;72726;44.842;37.556;2024-03-22T04:14:26;11.88;;;5.32;;
79015;SDS011;72726;44.842;37.556;2024-03-22T04:15:27;15.52;;;5.68;;
79015;SDS011;72726;44.842;37.556;2024-03-22T04:16:29;14.18;;;5.57;;
79015;SDS011;72726;44.842;37.556;2024-03-22T04:17:30;14.18;;;5.30;;
79015;SDS011;72726;44.842;37.556;2024-03-22T04:18:31;15.05;;;5.97;;
79015;SDS011;72726;44.842;37.556;2024-03-22T04:19:32;14.43;;;5.97;;
79015;SDS011;72726;44.842;37.556;2024-03-22T04:20:33;13.20;;;5.53;;
79015;SDS011;72726;44.842;37.556;2024-03-22T04:21:35;13.27;;;5.90;;
79015;SDS011;72726;44.842;37.556;2024-03-22T04:22:36;12.95;;;5.55;;
79015;SDS011;72726;44.842;37.556;2024-03-22T04:23:38;13.85;;;5.60;;
79015;SDS011;72726;44.842;37.556;2024-03-22T04:24:39;13.38;;;5.63;;
79015;SDS011;72726;44.842;37.556;2024-03-22T04:25:40;12.68;;;5.70;;
79015;SDS011;72726;44.842;37.556;2024-03-22T04:26:41;11.68;;;5.40;;
79015;SDS011;72726;44.842;37.556;2024-03-22T04:27:43;13.80;;;5.38;;
79015;SDS011;72726;44.842;37.556;2024-03-22T04:28:44;16.75;;;5.82;;
79015;SDS011;72726;44.842;37.556;2024-03-22T04:29:48;15.82;;;5.97;;
79015;SDS011;72726;44.842;37.556;2024-03-22T04:30:56;13.00;;;6.00;;
79015;SDS011;72726;44.842;37.556;2024-03-22T04:32:01;15.40;;;5.63;;
79015;SDS011;72726;44.842;37.556;2024-03-22T04:33:03;14.32;;;5.35;;
79015;SDS011;72726;44.842;37.556;2024-03-22T04:34:04;13.48;;;5.28;;
79015;SDS011;72726;44.842;37.556;2024-03-22T04:35:08;11.57;;;5.47;;
79015;SDS011;72726;44.842;37.556;2024-03-22T04:36:10;13.27;;;5.85;;
79015;SDS011;72726;44.842;37.556;2024-03-22T04:37:11;13.43;;;5.65;;
79015;SDS011;72726;44.842;37.556;2024-03-22T04:38:13;12.18;;;5.63;;
79015;SDS011;72726;44.842;37.556;2024-03-22T04:39:14;12.43;;;5.82;;
79015;SDS011;72726;44.842;37.556;2024-03-22T04:40:17;13.52;;;5.43;;
79015;SDS011;72726;44.842;37.556;2024-03-22T04:41:19;13.50;;;5.88;;
79015;SDS011;72726;44.842;37.556;2024-03-22T04:42:20;13.40;;;5.13;;
79015;SDS011;72726;44.842;37.556;2024-03-22T04:43:22;16.95;;;5.82;;
79015;SDS011;72726;44.842;37.556;2024-03-22T04:44:27;13.85;;;5.85;;
79015;SDS011;72726;44.842;37.556;2024-03-22T04:45:28;13.10;;;5.40;;
79015;SDS011;72726;44.842;37.556;2024-03-22T04:46:29;12.88;;;5.13;;
79015;SDS011;72726;44.842;37.556;2024-03-22T04:47:31;13.23;;;5.35;;
79015;SDS011;72726;44.842;37.556;2024-03-22T04:48:32;14.27;;;5.63;;
79015;SDS011;72726;44.842;37.556;2024-03-22T04:49:33;12.18;;;5.53;;
79015;SDS011;72726;44.842;37.556;2024-03-22T04:50:35;11.60;;;4.82;;
79015;SDS011;72726;44.842;37.556;2024-03-22T04:51:37;11.77;;;4.70;;
79015;SDS011;72726;44.842;37.556;2024-03-22T04:52:38;15.07;;;5.95;;
79015;SDS011;72726;44.842;37.556;2024-03-22T04:53:39;13.63;;;4.95;;
79015;SDS011;72726;44.842;37.556;2024-03-22T04:54:41;12.50;;;5.10;;
79015;SDS011;72726;44.842;37.556;2024-03-22T04:55:42;12.52;;;5.15;;
79015;SDS011;72726;44.842;37.556;2024-03-22T04:56:45;13.25;;;5.60;;
79015;SDS011;72726;44.842;37.556;2024-03-22T04:57:47;12.18;;;5.13;;
79015;SDS011;72726;44.842;37.556;2024-03-22T04:58:50;13.98;;;5.55;;
79015;SDS011;72726;44.842;37.556;2024-03-22T04:59:51;12.23;;;5.00;;
79015;SDS011;72726;44.842;37.556;2024-03-22T05:00:56;12.02;;;4.80;;
79015;SDS011;72726;44.842;37.556;2024-03-22T05:01:59;11.60;;;4.97;;
79015;SDS011;72726;44.842;37.556;2024-03-22T05:04:04;11.60;;;4.90;;
79015;SDS011;72726;44.842;37.556;2024-03-22T05:05:06;12.20;;;5.28;;
79015;SDS011;72726;44.842;37.556;2024-03-22T05:06:10;11.25;;;4.53;;
79015;SDS011;72726;44.842;37.556;2024-03-22T05:07:12;11.57;;;4.53;;
79015;SDS011;72726;44.842;37.556;2024-03-22T05:08:15;14.30;;;5.13;;
79015;SDS011;72726;44.842;37.556;2024-03-22T05:09:16;11.80;;;5.07;;
79015;SDS011;72726;44.842;37.556;2024-03-22T05:10:21;14.07;;;5.28;;
79015;SDS011;72726;44.842;37.556;2024-03-22T05:11:22;13.15;;;4.97;;
79015;SDS011;72726;44.842;37.556;2024-03-22T05:12:25;12.32;;;5.28;;
79015;SDS011;72726;44.842;37.556;2024-03-22T05:13:26;12.02;;;4.45;;
79015;SDS011;72726;44.842;37.556;2024-03-22T05:14:28;10.85;;;4.18;;
79015;SDS011;72726;44.842;37.556;2024-03-22T05:15:29;14.05;;;4.35;;
79015;SDS011;72726;44.842;37.556;2024-03-22T05:16:31;10.98;;;4.47;;
79015;SDS011;72726;44.842;37.556;2024-03-22T05:17:32;11.73;;;4.90;;
79015;SDS011;72726;44.842;37.556;2024-03-22T05:18:35;11.93;;;4.35;;
79015;SDS011;72726;44.842;37.556;2024-03-22T05:19:36;11.20;;;4.80;;
79015;SDS011;72726;44.842;37.556;2024-03-22T05:20:38;10.70;;;4.43;;
79015;SDS011;72726;44.842;37.556;2024-03-22T05:21:39;12.35;;;4.90;;
79015;SDS011;72726;44.842;37.556;2024-03-22T05:22:40;12.32;;;4.53;;
79015;SDS011;72726;44.842;37.556;2024-03-22T05:23:42;10.98;;;4.03;;
79015;SDS011;72726;44.842;37.556;2024-03-22T05:24:43;13.88;;;4.97;;
79015;SDS011;72726;44.842;37.556;2024-03-22T05:25:44;11.95;;;4.75;;
79015;SDS011;72726;44.842;37.556;2024-03-22T05:26:46;11.07;;;4.30;;
79015;SDS011;72726;44.842;37.556;2024-03-22T05:27:47;10.73;;;4.38;;
79015;SDS011;72726;44.842;37.556;2024-03-22T05:28:48;9.82;;;4.13;;
79015;SDS011;72726;44.842;37.556;2024-03-22T05:29:50;12.07;;;4.72;;
79015;SDS011;72726;44.842;37.556;2024-03-22T05:30:51;11.75;;;4.05;;
79015;SDS011;72726;44.842;37.556;2024-03-22T05:31:52;10.65;;;4.68;;
79015;SDS011;72726;44.842;37.556;2024-03-22T05:32:54;10.82;;;4.45;;
79015;SDS011;72726;44.842;37.556;2024-03-22T05:33:55;10.30;;;4.50;;
79015;SDS011;72726;44.842;37.556;2024-03-22T05:34:56;10.23;;;4.40;;
79015;SDS011;72726;44.842;37.556;2024-03-22T05:36:01;11.70;;;4.45;;
79015;SDS011;72726;44.842;37.556;2024-03-22T05:37:03;9.52;;;3.80;;
79015;SDS011;72726;44.842;37.556;2024-03-22T05:38:04;10.93;;;4.05;;
79015;SDS011;72726;44.842;37.556;2024-03-22T05:39:06;10.40;;;4.60;;
79015;SDS011;72726;44.842;37.556;2024-03-22T05:40:07;9.77;;;4.00;;
79015;SDS011;72726;44.842;37.556;2024-03-22T05:41:09;10.27;;;3.85;;
79015;SDS011;72726;44.842;37.556;2024-03-22T05:42:11;14.23;;;4.43;;
79015;SDS011;72726;44.842;37.556;2024-03-22T05:43:15;11.93;;;4.13;;
79015;SDS011;72726;44.842;37.556;2024-03-22T05:44:16;9.05;;;4.05;;
79015;SDS011;72726;44.842;37.556;2024-03-22T05:45:17;9.70;;;3.95;;
79015;SDS011;72726;44.842;37.556;2024-03-22T05:46:19;11.80;;;4.32;;
79015;SDS011;72726;44.842;37.556;2024-03-22T05:47:20;9.48;;;4.00;;
79015;SDS011;72726;44.842;37.556;2024-03-22T05:48:21;10.60;;;4.07;;
79015;SDS011;72726;44.842;37.556;2024-03-22T05:49:23;11.00;;;4.00;;
79015;SDS011;72726;44.842;37.556;2024-03-22T05:50:24;10.52;;;4.40;;
79015;SDS011;72726;44.842;37.556;2024-03-22T05:51:26;8.98;;;4.10;;
79015;SDS011;72726;44.842;37.556;2024-03-22T05:52:28;10.43;;;3.75;;
79015;SDS011;72726;44.842;37.556;2024-03-22T05:53:29;9.82;;;3.92;;
79015;SDS011;72726;44.842;37.556;2024-03-22T05:54:30;10.77;;;4.03;;
79015;SDS011;72726;44.842;37.556;2024-03-22T05:55:36;10.13;;;3.70;;
79015;SDS011;72726;44.842;37.556;2024-03-22T05:56:37;9.25;;;3.72;;
79015;SDS011;72726;44.842;37.556;2024-03-22T05:57:38;9.80;;;3.88;;
79015;SDS011;72726;44.842;37.556;2024-03-22T05:58:40;9.48;;;3.72;;
79015;SDS011;72726;44.842;37.556;2024-03-22T05:59:42;10.50;;;4.28;;
79015;SDS011;72726;44.842;37.556;2024-03-22T06:00:43;8.90;;;4.00;;
79015;SDS011;72726;44.842;37.556;2024-03-22T06:01:45;10.32;;;4.10;;
79015;SDS011;72726;44.842;37.556;2024-03-22T06:02:46;9.30;;;3.80;;
79015;SDS011;72726;44.842;37.556;2024-03-22T06:03:47;10.45;;;4.10;;
79015;SDS011;72726;44.842;37.556;2024-03-22T06:04:51;9.85;;;3.85;;
79015;SDS011;72726;44.842;37.556;2024-03-22T06:05:52;10.70;;;4.13;;
79015;SDS011;72726;44.842;37.556;2024-03-22T06:06:58;10.50;;;3.90;;
79015;SDS011;72726;44.842;37.556;2024-03-22T06:08:01;9.32;;;3.60;;
79015;SDS011;72726;44.842;37.556;2024-03-22T06:09:02;8.57;;;3.67;;
79015;SDS011;72726;44.842;37.556;2024-03-22T06:10:05;11.43;;;4.30;;
79015;SDS011;72726;44.842;37.556;2024-03-22T06:11:06;10.77;;;4.10;;
79015;SDS011;72726;44.842;37.556;2024-03-22T06:12:08;10.40;;;3.85;;
79015;SDS011;72726;44.842;37.556;2024-03-22T06:13:09;13.05;;;4.22;;
79015;SDS011;72726;44.842;37.556;2024-03-22T06:14:11;11.25;;;4.43;;
79015;SDS011;72726;44.842;37.556;2024-03-22T06:15:18;10.48;;;3.97;;
79015;SDS011;72726;44.842;37.556;2024-03-22T06:16:19;10.30;;;4.20;;
79015;SDS011;72726;44.842;37.556;2024-03-22T06:17:20;10.85;;;4.55;;
79015;SDS011;72726;44.842;37.556;2024-03-22T06:18:21;12.73;;;4.97;;